NOAA Web Site Link Tides and Currents Home Page Transparent placeholder image

PORTS® Data Listing: 8519483 Bergen Point West Reach, NY

CO-OPS RAW PORTS DATA

************************      PRELIMINARY DATA      ************************** 

     THIS RAW DATA HAS NOT BEEN SUBJECT TO THE NATIONAL OCEAN SERVICE'S        
     QUALITY CONTROL OR QUALITY ASSURANCE PROCEDURES AND DOES NOT MEET         
     THE CRITERIA AND STANDARDS OF OFFICIAL NATIONAL OCEAN SERVICE             
     DATA.  IT IS RELEASED FOR LIMITED PUBLIC USE AS PRELIMINARY DATA TO       
     BE USED ONLY WITH APPROPRIATE CAUTION.                                    

************************      PRELIMINARY DATA      ************************** 


       CD   -   Calendar date
       T    -   Time
       TZ   -   Timezone
       PW   -   Predicted water level (feet above MLLW)
       OW   -   Observed water level (feet above MLLW)
       WS   -   Wind speed (knots)
       WD   -   Wind direction (degrees true)
       WG   -   Wind gust (knots)
       AT   -   Air temperature (degrees farenheit)
       WT   -   Water temperature (degrees farenheit)
       AP   -   Air pressure (millibars)
       SA   -   Salinty (PSU - Practical Salinity Units)
       SG   -   Specific gravity
       RH   -   Relative humidity
       AG   -   Air gap (feet)
       VI   -   Visibility (nautical miles)

       ** NOTE **
       A variable that has its data fields filled with "9"s, indicates that
       data was not collected for that sample period.
       **********


STATION NAME: Bergen Point West Reach (8519483)
****************************************************************************************************
    CD       T    TZ    PW     OW    WS   WD   WG    AT    WT    AP    SA    SG     RH    AG   VI
****************************************************************************************************
2019/06/19 06:54 EDT    1.75   2.59 -999 -999 -999  67.6  68.0 1011.7 -9.9 -9.999 -99.9 -99.99 -9.99
2019/06/19 07:00 EDT    1.90   2.73 -999 -999 -999  67.8  68.0 1011.6 -9.9 -9.999 -99.9 -99.99 -9.99
2019/06/19 07:06 EDT    2.04   2.86 -999 -999 -999  67.8  68.0 1011.6 -9.9 -9.999 -99.9 -99.99 -9.99
2019/06/19 07:12 EDT    2.19   3.02 -999 -999 -999  67.8  67.8 1011.7 -9.9 -9.999 -99.9 -99.99 -9.99
2019/06/19 07:18 EDT    2.34   3.16 -999 -999 -999  67.8  67.8 1011.7 -9.9 -9.999 -99.9 -99.99 -9.99
2019/06/19 07:24 EDT    2.48   3.28 -999 -999 -999  67.8  67.8 1011.6 -9.9 -9.999 -99.9 -99.99 -9.99
2019/06/19 07:30 EDT    2.62   3.41 -999 -999 -999  67.8  67.8 1011.6 -9.9 -9.999 -99.9 -99.99 -9.99
2019/06/19 07:36 EDT    2.76 -99.99 -999 -999 -999 -99.9 -99.9 -999.9 -9.9 -9.999 -99.9 -99.99 -9.99
2019/06/19 07:42 EDT    2.90   3.67 -999 -999 -999 -99.9 -99.9 -999.9 -9.9 -9.999 -99.9 -99.99 -9.99
2019/06/19 07:48 EDT    3.03   3.79 -999 -999 -999  68.0  67.8 1011.5 -9.9 -9.999 -99.9 -99.99 -9.99
2019/06/19 07:54 EDT    3.16   3.91 -999 -999 -999  68.2  67.8 1011.5 -9.9 -9.999 -99.9 -99.99 -9.99
2019/06/19 08:00 EDT    3.28   4.03 -999 -999 -999  68.4  67.8 1011.5 -9.9 -9.999 -99.9 -99.99 -9.99
2019/06/19 08:06 EDT    3.41   4.15 -999 -999 -999  68.4  67.8 1011.6 -9.9 -9.999 -99.9 -99.99 -9.99
2019/06/19 08:12 EDT    3.52   4.27 -999 -999 -999  68.4  67.8 1011.6 -9.9 -9.999 -99.9 -99.99 -9.99
2019/06/19 08:18 EDT    3.63   4.37 -999 -999 -999  68.4  67.8 1011.6 -9.9 -9.999 -99.9 -99.99 -9.99
2019/06/19 08:24 EDT    3.74   4.47 -999 -999 -999  68.5  67.8 1011.6 -9.9 -9.999 -99.9 -99.99 -9.99
2019/06/19 08:30 EDT    3.85   4.57 -999 -999 -999  68.2  67.8 1011.6 -9.9 -9.999 -99.9 -99.99 -9.99
2019/06/19 08:36 EDT    3.94   4.65 -999 -999 -999  68.2  67.8 1011.6 -9.9 -9.999 -99.9 -99.99 -9.99
2019/06/19 08:42 EDT    4.04   4.73 -999 -999 -999  68.5  67.6 1011.6 -9.9 -9.999 -99.9 -99.99 -9.99
2019/06/19 08:48 EDT    4.12   4.82 -999 -999 -999  68.2  67.6 1011.6 -9.9 -9.999 -99.9 -99.99 -9.99
2019/06/19 08:54 EDT    4.21   4.89 -999 -999 -999  68.2  67.6 1011.6 -9.9 -9.999 -99.9 -99.99 -9.99
2019/06/19 09:00 EDT    4.29   4.94 -999 -999 -999  68.0  67.5 1011.7 -9.9 -9.999 -99.9 -99.99 -9.99
2019/06/19 09:06 EDT    4.36   5.06 -999 -999 -999  68.0  67.5 1011.8 -9.9 -9.999 -99.9 -99.99 -9.99
2019/06/19 09:12 EDT    4.43   5.13 -999 -999 -999  68.0  67.5 1011.8 -9.9 -9.999 -99.9 -99.99 -9.99
2019/06/19 09:18 EDT    4.50   5.20 -999 -999 -999  67.8  67.5 1011.8 -9.9 -9.999 -99.9 -99.99 -9.99
2019/06/19 09:24 EDT    4.56   5.27 -999 -999 -999  67.6  67.5 1011.8 -9.9 -9.999 -99.9 -99.99 -9.99
2019/06/19 09:30 EDT    4.61   5.34 -999 -999 -999  67.8  67.5 1011.7 -9.9 -9.999 -99.9 -99.99 -9.99
2019/06/19 09:36 EDT    4.66   5.39 -999 -999 -999  67.8  67.5 1011.7 -9.9 -9.999 -99.9 -99.99 -9.99
2019/06/19 09:42 EDT    4.71   5.46 -999 -999 -999  68.0  67.5 1011.7 -9.9 -9.999 -99.9 -99.99 -9.99
2019/06/19 09:48 EDT    4.75   5.50 -999 -999 -999  67.8  67.5 1011.7 -9.9 -9.999 -99.9 -99.99 -9.99
2019/06/19 09:54 EDT    4.78   5.56 -999 -999 -999  67.6  67.5 1011.7 -9.9 -9.999 -99.9 -99.99 -9.99
2019/06/19 10:00 EDT    4.81   5.58 -999 -999 -999  68.0  67.5 1011.6 -9.9 -9.999 -99.9 -99.99 -9.99
2019/06/19 10:06 EDT    4.84   5.63 -999 -999 -999  68.2  67.5 1011.5 -9.9 -9.999 -99.9 -99.99 -9.99
2019/06/19 10:12 EDT    4.86   5.68 -999 -999 -999  67.8  67.5 1011.4 -9.9 -9.999 -99.9 -99.99 -9.99
2019/06/19 10:18 EDT    4.88   5.68 -999 -999 -999  68.0  67.5 1011.5 -9.9 -9.999 -99.9 -99.99 -9.99
2019/06/19 10:24 EDT    4.89   5.72 -999 -999 -999  68.0  67.5 1011.5 -9.9 -9.999 -99.9 -99.99 -9.99
2019/06/19 10:30 EDT    4.89   5.74 -999 -999 -999  67.8  67.5 1011.6 -9.9 -9.999 -99.9 -99.99 -9.99
2019/06/19 10:36 EDT    4.89   5.73 -999 -999 -999  67.6  67.5 1011.6 -9.9 -9.999 -99.9 -99.99 -9.99
2019/06/19 10:42 EDT    4.89   5.73 -999 -999 -999  67.5  67.5 1011.7 -9.9 -9.999 -99.9 -99.99 -9.99
2019/06/19 10:48 EDT    4.88   5.71 -999 -999 -999  68.0  67.3 1011.8 -9.9 -9.999 -99.9 -99.99 -9.99
2019/06/19 10:54 EDT    4.86   5.67 -999 -999 -999  67.8  67.3 1011.8 -9.9 -9.999 -99.9 -99.99 -9.99
2019/06/19 11:00 EDT    4.84   5.65 -999 -999 -999  67.8  67.3 1011.8 -9.9 -9.999 -99.9 -99.99 -9.99
2019/06/19 11:06 EDT    4.81   5.64 -999 -999 -999  67.8  67.3 1011.7 -9.9 -9.999 -99.9 -99.99 -9.99
2019/06/19 11:12 EDT    4.78   5.59 -999 -999 -999  67.8  67.5 1011.5 -9.9 -9.999 -99.9 -99.99 -9.99
2019/06/19 11:18 EDT    4.74   5.54 -999 -999 -999  67.8  67.5 1011.5 -9.9 -9.999 -99.9 -99.99 -9.99
2019/06/19 11:24 EDT    4.69   5.46 -999 -999 -999  68.0  67.5 1011.5 -9.9 -9.999 -99.9 -99.99 -9.99
2019/06/19 11:30 EDT    4.64   5.39 -999 -999 -999  68.2  67.5 1011.5 -9.9 -9.999 -99.9 -99.99 -9.99
2019/06/19 11:36 EDT    4.58   5.33 -999 -999 -999  68.2  67.5 1011.5 -9.9 -9.999 -99.9 -99.99 -9.99
2019/06/19 11:42 EDT    4.52   5.24 -999 -999 -999  68.7  67.5 1011.4 -9.9 -9.999 -99.9 -99.99 -9.99
2019/06/19 11:48 EDT    4.46   5.14 -999 -999 -999  68.7  67.5 1011.4 -9.9 -9.999 -99.9 -99.99 -9.99
2019/06/19 11:54 EDT    4.38   5.05 -999 -999 -999  68.9  67.5 1011.4 -9.9 -9.999 -99.9 -99.99 -9.99
2019/06/19 12:00 EDT    4.31   4.94 -999 -999 -999  69.1  67.5 1011.2 -9.9 -9.999 -99.9 -99.99 -9.99
2019/06/19 12:06 EDT    4.23   4.82 -999 -999 -999  69.8  67.5 1011.2 -9.9 -9.999 -99.9 -99.99 -9.99
2019/06/19 12:12 EDT    4.14   4.69 -999 -999 -999  69.1  67.5 1011.1 -9.9 -9.999 -99.9 -99.99 -9.99
2019/06/19 12:18 EDT    4.05   4.57 -999 -999 -999  68.9  67.5 1011.2 -9.9 -9.999 -99.9 -99.99 -9.99
2019/06/19 12:24 EDT    3.96   4.47 -999 -999 -999  69.1  67.5 1011.2 -9.9 -9.999 -99.9 -99.99 -9.99
2019/06/19 12:30 EDT    3.86   4.37 -999 -999 -999  69.6  67.6 1011.2 -9.9 -9.999 -99.9 -99.99 -9.99
2019/06/19 12:36 EDT    3.77   4.27 -999 -999 -999  69.6  67.6 1011.2 -9.9 -9.999 -99.9 -99.99 -9.99
2019/06/19 12:42 EDT    3.67   4.15 -999 -999 -999  69.4  67.6 1011.1 -9.9 -9.999 -99.9 -99.99 -9.99
2019/06/19 12:48 EDT    3.57   4.04 -999 -999 -999  69.8  67.6 1011.1 -9.9 -9.999 -99.9 -99.99 -9.99
2019/06/19 12:54 EDT    3.46   3.92 -999 -999 -999  69.6  67.6 1011.1 -9.9 -9.999 -99.9 -99.99 -9.99
2019/06/19 13:00 EDT    3.36   3.80 -999 -999 -999  68.9  67.6 1011.0 -9.9 -9.999 -99.9 -99.99 -9.99
2019/06/19 13:06 EDT    3.25   3.71 -999 -999 -999  69.4  67.6 1010.9 -9.9 -9.999 -99.9 -99.99 -9.99
2019/06/19 13:12 EDT    3.15   3.60 -999 -999 -999  69.8  67.6 1010.9 -9.9 -9.999 -99.9 -99.99 -9.99
2019/06/19 13:18 EDT    3.04   3.47 -999 -999 -999  69.3  67.8 1010.8 -9.9 -9.999 -99.9 -99.99 -9.99
2019/06/19 13:24 EDT    2.94   3.35 -999 -999 -999  68.9  67.8 1010.8 -9.9 -9.999 -99.9 -99.99 -9.99
2019/06/19 13:30 EDT    2.83   3.25 -999 -999 -999  68.7  67.8 1010.7 -9.9 -9.999 -99.9 -99.99 -9.99
2019/06/19 13:36 EDT    2.73   3.13 -999 -999 -999  68.9  67.8 1010.7 -9.9 -9.999 -99.9 -99.99 -9.99
2019/06/19 13:42 EDT    2.63   3.03 -999 -999 -999  68.9  67.8 1010.6 -9.9 -9.999 -99.9 -99.99 -9.99
2019/06/19 13:48 EDT    2.53   2.91 -999 -999 -999  69.1  68.0 1010.5 -9.9 -9.999 -99.9 -99.99 -9.99
2019/06/19 13:54 EDT    2.43   2.81 -999 -999 -999  69.6  68.2 1010.5 -9.9 -9.999 -99.9 -99.99 -9.99
2019/06/19 14:00 EDT    2.33   2.71 -999 -999 -999  69.6  68.4 1010.3 -9.9 -9.999 -99.9 -99.99 -9.99
2019/06/19 14:06 EDT    2.23   2.60 -999 -999 -999  69.6  68.4 1010.2 -9.9 -9.999 -99.9 -99.99 -9.99
2019/06/19 14:12 EDT    2.14   2.51 -999 -999 -999  69.8  68.5 1010.2 -9.9 -9.999 -99.9 -99.99 -9.99
2019/06/19 14:18 EDT    2.05   2.42 -999 -999 -999  70.0  68.5 1010.1 -9.9 -9.999 -99.9 -99.99 -9.99
2019/06/19 14:24 EDT    1.95   2.34 -999 -999 -999  70.3  68.5 1010.1 -9.9 -9.999 -99.9 -99.99 -9.99
2019/06/19 14:30 EDT    1.87   2.26 -999 -999 -999  70.0  68.5 1010.0 -9.9 -9.999 -99.9 -99.99 -9.99
2019/06/19 14:36 EDT    1.78   2.19 -999 -999 -999  70.3  68.5 1010.1 -9.9 -9.999 -99.9 -99.99 -9.99
2019/06/19 14:42 EDT    1.69   2.13 -999 -999 -999  70.2  68.5 1010.0 -9.9 -9.999 -99.9 -99.99 -9.99
2019/06/19 14:48 EDT    1.61   2.06 -999 -999 -999  70.0  68.5 1010.0 -9.9 -9.999 -99.9 -99.99 -9.99
2019/06/19 14:54 EDT    1.53   1.99 -999 -999 -999  69.8  68.5 1009.9 -9.9 -9.999 -99.9 -99.99 -9.99
2019/06/19 15:00 EDT    1.45   1.96 -999 -999 -999  69.8  68.5 1009.8 -9.9 -9.999 -99.9 -99.99 -9.99
2019/06/19 15:06 EDT    1.37   1.92 -999 -999 -999  69.6  68.5 1009.8 -9.9 -9.999 -99.9 -99.99 -9.99
2019/06/19 15:12 EDT    1.30   1.88 -999 -999 -999  70.0  68.5 1009.8 -9.9 -9.999 -99.9 -99.99 -9.99
2019/06/19 15:18 EDT    1.23   1.84 -999 -999 -999  69.3  68.5 1009.7 -9.9 -9.999 -99.9 -99.99 -9.99
2019/06/19 15:24 EDT    1.16   1.80 -999 -999 -999  69.3  68.5 1009.6 -9.9 -9.999 -99.9 -99.99 -9.99
2019/06/19 15:30 EDT    1.09   1.75 -999 -999 -999  68.9  68.5 1009.6 -9.9 -9.999 -99.9 -99.99 -9.99
2019/06/19 15:36 EDT    1.03   1.71 -999 -999 -999  69.1  68.5 1009.6 -9.9 -9.999 -99.9 -99.99 -9.99
2019/06/19 15:42 EDT    0.97   1.67 -999 -999 -999  69.1  68.7 1009.6 -9.9 -9.999 -99.9 -99.99 -9.99
2019/06/19 15:48 EDT    0.91   1.64 -999 -999 -999  68.9  68.7 1009.5 -9.9 -9.999 -99.9 -99.99 -9.99
2019/06/19 15:54 EDT    0.86   1.62 -999 -999 -999  68.9  68.7 1009.4 -9.9 -9.999 -99.9 -99.99 -9.99
2019/06/19 16:00 EDT    0.81   1.58 -999 -999 -999  69.1  68.7 1009.3 -9.9 -9.999 -99.9 -99.99 -9.99
2019/06/19 16:06 EDT    0.76   1.53 -999 -999 -999  68.9  68.7 1009.2 -9.9 -9.999 -99.9 -99.99 -9.99
2019/06/19 16:12 EDT    0.72   1.53 -999 -999 -999  68.7  68.7 1009.2 -9.9 -9.999 -99.9 -99.99 -9.99
2019/06/19 16:18 EDT    0.68   1.51 -999 -999 -999  68.7  68.7 1009.2 -9.9 -9.999 -99.9 -99.99 -9.99
2019/06/19 16:24 EDT    0.65   1.48 -999 -999 -999  68.7  68.5 1009.1 -9.9 -9.999 -99.9 -99.99 -9.99
2019/06/19 16:30 EDT    0.63   1.45 -999 -999 -999  68.5  68.5 1009.0 -9.9 -9.999 -99.9 -99.99 -9.99
2019/06/19 16:36 EDT    0.61   1.43 -999 -999 -999  68.5  68.5 1009.0 -9.9 -9.999 -99.9 -99.99 -9.99
2019/06/19 16:42 EDT    0.60   1.42 -999 -999 -999  68.4  68.5 1009.0 -9.9 -9.999 -99.9 -99.99 -9.99
2019/06/19 16:48 EDT    0.60   1.39 -999 -999 -999  68.0  68.5 1009.0 -9.9 -9.999 -99.9 -99.99 -9.99
2019/06/19 16:54 EDT    0.60   1.41 -999 -999 -999  68.2  68.5 1008.9 -9.9 -9.999 -99.9 -99.99 -9.99
2019/06/19 17:00 EDT    0.61   1.42 -999 -999 -999  68.0  68.5 1009.0 -9.9 -9.999 -99.9 -99.99 -9.99
2019/06/19 17:06 EDT    0.63   1.45 -999 -999 -999  67.8  68.5 1008.9 -9.9 -9.999 -99.9 -99.99 -9.99
2019/06/19 17:12 EDT    0.66   1.47 -999 -999 -999  68.0  68.5 1008.8 -9.9 -9.999 -99.9 -99.99 -9.99
2019/06/19 17:18 EDT    0.69   1.52 -999 -999 -999  68.0  68.5 1008.7 -9.9 -9.999 -99.9 -99.99 -9.99
2019/06/19 17:24 EDT    0.74   1.58 -999 -999 -999  68.0  68.5 1008.6 -9.9 -9.999 -99.9 -99.99 -9.99
2019/06/19 17:30 EDT    0.79   1.63 -999 -999 -999  68.2  68.5 1008.5 -9.9 -9.999 -99.9 -99.99 -9.99
2019/06/19 17:36 EDT    0.85   1.70 -999 -999 -999  68.2  68.5 1008.5 -9.9 -9.999 -99.9 -99.99 -9.99
2019/06/19 17:42 EDT    0.92   1.79 -999 -999 -999  68.0  68.5 1008.6 -9.9 -9.999 -99.9 -99.99 -9.99
2019/06/19 17:48 EDT    1.00   1.87 -999 -999 -999  68.0  68.5 1008.4 -9.9 -9.999 -99.9 -99.99 -9.99
2019/06/19 17:54 EDT    1.08   1.94 -999 -999 -999  67.8  68.5 1008.3 -9.9 -9.999 -99.9 -99.99 -9.99
2019/06/19 18:00 EDT    1.18   2.06 -999 -999 -999  68.0  68.4 1008.3 -9.9 -9.999 -99.9 -99.99 -9.99
2019/06/19 18:06 EDT    1.28   2.16 -999 -999 -999  68.0  68.4 1008.3 -9.9 -9.999 -99.9 -99.99 -9.99
2019/06/19 18:12 EDT    1.39   2.29 -999 -999 -999  67.8  68.4 1008.3 -9.9 -9.999 -99.9 -99.99 -9.99
2019/06/19 18:18 EDT    1.50   2.41 -999 -999 -999  68.0  68.4 1008.2 -9.9 -9.999 -99.9 -99.99 -9.99
2019/06/19 18:24 EDT    1.63   2.55 -999 -999 -999  68.2  68.4 1008.2 -9.9 -9.999 -99.9 -99.99 -9.99
2019/06/19 18:30 EDT    1.75   2.69 -999 -999 -999  68.0  68.4 1008.2 -9.9 -9.999 -99.9 -99.99 -9.99
2019/06/19 18:36 EDT    1.89   2.84 -999 -999 -999  67.8  68.4 1008.2 -9.9 -9.999 -99.9 -99.99 -9.99
2019/06/19 18:42 EDT    2.02   2.99 -999 -999 -999  67.6  68.2 1008.1 -9.9 -9.999 -99.9 -99.99 -9.99
2019/06/19 18:48 EDT    2.16   3.15 -999 -999 -999  67.8  68.2 1008.2 -9.9 -9.999 -99.9 -99.99 -9.99
2019/06/19 18:54 EDT    2.31   3.30 -999 -999 -999  67.6  68.2 1008.1 -9.9 -9.999 -99.9 -99.99 -9.99
2019/06/19 19:00 EDT    2.45   3.45 -999 -999 -999  67.6  68.2 1008.3 -9.9 -9.999 -99.9 -99.99 -9.99
2019/06/19 19:06 EDT    2.60   3.62 -999 -999 -999  67.6  68.2 1008.3 -9.9 -9.999 -99.9 -99.99 -9.99
2019/06/19 19:12 EDT    2.75   3.76 -999 -999 -999  67.6  68.2 1008.4 -9.9 -9.999 -99.9 -99.99 -9.99
2019/06/19 19:18 EDT    2.90   3.91 -999 -999 -999  67.5  68.2 1008.3 -9.9 -9.999 -99.9 -99.99 -9.99
2019/06/19 19:24 EDT    3.05   4.07 -999 -999 -999  67.5  68.2 1008.4 -9.9 -9.999 -99.9 -99.99 -9.99
2019/06/19 19:30 EDT    3.20   4.23 -999 -999 -999  67.3  68.2 1008.2 -9.9 -9.999 -99.9 -99.99 -9.99
2019/06/19 19:36 EDT    3.35   4.36 -999 -999 -999  67.3  68.2 1008.2 -9.9 -9.999 -99.9 -99.99 -9.99
2019/06/19 19:42 EDT    3.49   4.50 -999 -999 -999  67.3  68.2 1008.2 -9.9 -9.999 -99.9 -99.99 -9.99
2019/06/19 19:48 EDT    3.63   4.64 -999 -999 -999  67.1  68.4 1008.3 -9.9 -9.999 -99.9 -99.99 -9.99
2019/06/19 19:54 EDT    3.77   4.78 -999 -999 -999  67.1  68.4 1008.3 -9.9 -9.999 -99.9 -99.99 -9.99
2019/06/19 20:00 EDT    3.91   4.92 -999 -999 -999  67.1  68.4 1008.4 -9.9 -9.999 -99.9 -99.99 -9.99
2019/06/19 20:06 EDT    4.04   5.05 -999 -999 -999  67.1  68.4 1008.4 -9.9 -9.999 -99.9 -99.99 -9.99
2019/06/19 20:12 EDT    4.16   5.19 -999 -999 -999  67.1  68.2 1008.3 -9.9 -9.999 -99.9 -99.99 -9.99
2019/06/19 20:18 EDT    4.29   5.29 -999 -999 -999  67.1  68.2 1008.3 -9.9 -9.999 -99.9 -99.99 -9.99
2019/06/19 20:24 EDT    4.40   5.38 -999 -999 -999  67.1  68.2 1008.3 -9.9 -9.999 -99.9 -99.99 -9.99
2019/06/19 20:30 EDT    4.51   5.46 -999 -999 -999  67.1  68.0 1008.4 -9.9 -9.999 -99.9 -99.99 -9.99
2019/06/19 20:36 EDT    4.62   5.56 -999 -999 -999  66.9  68.0 1008.4 -9.9 -9.999 -99.9 -99.99 -9.99
2019/06/19 20:42 EDT    4.72   5.65 -999 -999 -999  66.9  68.0 1008.3 -9.9 -9.999 -99.9 -99.99 -9.99
2019/06/19 20:48 EDT    4.82   5.73 -999 -999 -999  67.1  68.0 1008.4 -9.9 -9.999 -99.9 -99.99 -9.99
2019/06/19 20:54 EDT    4.91   5.79 -999 -999 -999  66.9  67.8 1008.3 -9.9 -9.999 -99.9 -99.99 -9.99
2019/06/19 21:00 EDT    5.00   5.86 -999 -999 -999  66.9  67.8 1008.3 -9.9 -9.999 -99.9 -99.99 -9.99
2019/06/19 21:06 EDT    5.08   5.92 -999 -999 -999  66.9  67.8 1008.2 -9.9 -9.999 -99.9 -99.99 -9.99
2019/06/19 21:12 EDT    5.15   5.97 -999 -999 -999  66.7  67.8 1008.2 -9.9 -9.999 -99.9 -99.99 -9.99
2019/06/19 21:18 EDT    5.22   6.01 -999 -999 -999  66.7  67.8 1008.1 -9.9 -9.999 -99.9 -99.99 -9.99
2019/06/19 21:24 EDT    5.28   6.07 -999 -999 -999  66.7  67.8 1008.2 -9.9 -9.999 -99.9 -99.99 -9.99
2019/06/19 21:30 EDT    5.34   6.12 -999 -999 -999  66.7  67.8 1008.1 -9.9 -9.999 -99.9 -99.99 -9.99
2019/06/19 21:36 EDT    5.40   6.14 -999 -999 -999  66.6  67.8 1008.2 -9.9 -9.999 -99.9 -99.99 -9.99
2019/06/19 21:42 EDT    5.45   6.18 -999 -999 -999  66.6  67.8 1008.1 -9.9 -9.999 -99.9 -99.99 -9.99
2019/06/19 21:48 EDT    5.49   6.22 -999 -999 -999  66.6  67.8 1008.2 -9.9 -9.999 -99.9 -99.99 -9.99
2019/06/19 21:54 EDT    5.54   6.25 -999 -999 -999  66.4  67.8 1008.2 -9.9 -9.999 -99.9 -99.99 -9.99
2019/06/19 22:00 EDT    5.57   6.30 -999 -999 -999  66.4  67.8 1008.2 -9.9 -9.999 -99.9 -99.99 -9.99
2019/06/19 22:06 EDT    5.60   6.32 -999 -999 -999  66.6  67.8 1008.1 -9.9 -9.999 -99.9 -99.99 -9.99
2019/06/19 22:12 EDT    5.63   6.34 -999 -999 -999  66.6  67.8 1008.0 -9.9 -9.999 -99.9 -99.99 -9.99
2019/06/19 22:18 EDT    5.65   6.39 -999 -999 -999  66.6  67.6 1007.9 -9.9 -9.999 -99.9 -99.99 -9.99
2019/06/19 22:24 EDT    5.67   6.42 -999 -999 -999  66.4  67.6 1007.8 -9.9 -9.999 -99.9 -99.99 -9.99
2019/06/19 22:30 EDT    5.68   6.42 -999 -999 -999  66.4  67.6 1008.1 -9.9 -9.999 -99.9 -99.99 -9.99
2019/06/19 22:36 EDT    5.69   6.43 -999 -999 -999  66.4  67.6 1008.0 -9.9 -9.999 -99.9 -99.99 -9.99
2019/06/19 22:42 EDT    5.69   6.45 -999 -999 -999  66.4  67.6 1007.9 -9.9 -9.999 -99.9 -99.99 -9.99
2019/06/19 22:48 EDT    5.69   6.47 -999 -999 -999  66.4  67.6 1007.8 -9.9 -9.999 -99.9 -99.99 -9.99
2019/06/19 22:54 EDT    5.68   6.48 -999 -999 -999  66.4  67.6 1007.7 -9.9 -9.999 -99.9 -99.99 -9.99
2019/06/19 23:00 EDT    5.67   6.47 -999 -999 -999  66.6  67.5 1007.8 -9.9 -9.999 -99.9 -99.99 -9.99
2019/06/19 23:06 EDT    5.65   6.47 -999 -999 -999  66.6  67.5 1007.6 -9.9 -9.999 -99.9 -99.99 -9.99
2019/06/19 23:12 EDT    5.63   6.43 -999 -999 -999  66.6  67.5 1007.5 -9.9 -9.999 -99.9 -99.99 -9.99
2019/06/19 23:18 EDT    5.60   6.41 -999 -999 -999  66.6  67.5 1007.5 -9.9 -9.999 -99.9 -99.99 -9.99
2019/06/19 23:24 EDT    5.57   6.40 -999 -999 -999  66.7  67.5 1007.4 -9.9 -9.999 -99.9 -99.99 -9.99
2019/06/19 23:30 EDT    5.53   6.39 -999 -999 -999  66.7  67.5 1007.3 -9.9 -9.999 -99.9 -99.99 -9.99
2019/06/19 23:36 EDT    5.48   6.34 -999 -999 -999  66.7  67.5 1007.3 -9.9 -9.999 -99.9 -99.99 -9.99
2019/06/19 23:42 EDT    5.43   6.29 -999 -999 -999  66.7  67.5 1007.2 -9.9 -9.999 -99.9 -99.99 -9.99
2019/06/19 23:48 EDT    5.37   6.23 -999 -999 -999  66.7  67.5 1007.0 -9.9 -9.999 -99.9 -99.99 -9.99
2019/06/19 23:54 EDT    5.31   6.16 -999 -999 -999  66.7  67.5 1006.9 -9.9 -9.999 -99.9 -99.99 -9.99
2019/06/20 00:00 EDT    5.24   6.08 -999 -999 -999  66.7  67.6 1006.9 -9.9 -9.999 -99.9 -99.99 -9.99
2019/06/20 00:06 EDT    5.16   5.99 -999 -999 -999  66.7  67.6 1006.9 -9.9 -9.999 -99.9 -99.99 -9.99
2019/06/20 00:12 EDT    5.08   5.90 -999 -999 -999  66.7  67.6 1006.8 -9.9 -9.999 -99.9 -99.99 -9.99
2019/06/20 00:18 EDT    5.00   5.80 -999 -999 -999  66.7  67.6 1006.8 -9.9 -9.999 -99.9 -99.99 -9.99
2019/06/20 00:24 EDT    4.91   5.68 -999 -999 -999  66.6  67.5 1006.8 -9.9 -9.999 -99.9 -99.99 -9.99
2019/06/20 00:30 EDT    4.81   5.59 -999 -999 -999  66.7  67.5 1007.0 -9.9 -9.999 -99.9 -99.99 -9.99
2019/06/20 00:36 EDT    4.71   5.49 -999 -999 -999  66.7  67.6 1007.1 -9.9 -9.999 -99.9 -99.99 -9.99
2019/06/20 00:42 EDT    4.61 -99.99 -999 -999 -999 -99.9 -99.9 -999.9 -9.9 -9.999 -99.9 -99.99 -9.99
2019/06/20 00:48 EDT    4.50 -99.99 -999 -999 -999 -99.9 -99.9 -999.9 -9.9 -9.999 -99.9 -99.99 -9.99
2019/06/20 00:54 EDT    4.39 -99.99 -999 -999 -999 -99.9 -99.9 -999.9 -9.9 -9.999 -99.9 -99.99 -9.99
2019/06/20 01:00 EDT    4.28 -99.99 -999 -999 -999 -99.9 -99.9 -999.9 -9.9 -9.999 -99.9 -99.99 -9.99
2019/06/20 01:06 EDT    4.16 -99.99 -999 -999 -999 -99.9 -99.9 -999.9 -9.9 -9.999 -99.9 -99.99 -9.99
2019/06/20 01:12 EDT    4.04 -99.99 -999 -999 -999 -99.9 -99.9 -999.9 -9.9 -9.999 -99.9 -99.99 -9.99
2019/06/20 01:18 EDT    3.92 -99.99 -999 -999 -999 -99.9 -99.9 -999.9 -9.9 -9.999 -99.9 -99.99 -9.99
2019/06/20 01:24 EDT    3.80 -99.99 -999 -999 -999 -99.9 -99.9 -999.9 -9.9 -9.999 -99.9 -99.99 -9.99
2019/06/20 01:30 EDT    3.67 -99.99 -999 -999 -999 -99.9 -99.9 -999.9 -9.9 -9.999 -99.9 -99.99 -9.99
2019/06/20 01:36 EDT    3.55 -99.99 -999 -999 -999 -99.9 -99.9 -999.9 -9.9 -9.999 -99.9 -99.99 -9.99
2019/06/20 01:42 EDT    3.42 -99.99 -999 -999 -999 -99.9 -99.9 -999.9 -9.9 -9.999 -99.9 -99.99 -9.99
2019/06/20 01:48 EDT    3.29 -99.99 -999 -999 -999 -99.9 -99.9 -999.9 -9.9 -9.999 -99.9 -99.99 -9.99
2019/06/20 01:54 EDT    3.17 -99.99 -999 -999 -999 -99.9 -99.9 -999.9 -9.9 -9.999 -99.9 -99.99 -9.99
2019/06/20 02:00 EDT    3.04 -99.99 -999 -999 -999 -99.9 -99.9 -999.9 -9.9 -9.999 -99.9 -99.99 -9.99
2019/06/20 02:06 EDT    2.92 -99.99 -999 -999 -999 -99.9 -99.9 -999.9 -9.9 -9.999 -99.9 -99.99 -9.99
2019/06/20 02:12 EDT    2.79 -99.99 -999 -999 -999 -99.9 -99.9 -999.9 -9.9 -9.999 -99.9 -99.99 -9.99
2019/06/20 02:18 EDT    2.67 -99.99 -999 -999 -999 -99.9 -99.9 -999.9 -9.9 -9.999 -99.9 -99.99 -9.99
2019/06/20 02:24 EDT    2.55 -99.99 -999 -999 -999 -99.9 -99.9 -999.9 -9.9 -9.999 -99.9 -99.99 -9.99
2019/06/20 02:30 EDT    2.42 -99.99 -999 -999 -999 -99.9 -99.9 -999.9 -9.9 -9.999 -99.9 -99.99 -9.99
2019/06/20 02:36 EDT    2.30 -99.99 -999 -999 -999 -99.9 -99.9 -999.9 -9.9 -9.999 -99.9 -99.99 -9.99
2019/06/20 02:42 EDT    2.19 -99.99 -999 -999 -999 -99.9 -99.9 -999.9 -9.9 -9.999 -99.9 -99.99 -9.99
2019/06/20 02:48 EDT    2.07 -99.99 -999 -999 -999 -99.9 -99.9 -999.9 -9.9 -9.999 -99.9 -99.99 -9.99
2019/06/20 02:54 EDT    1.96 -99.99 -999 -999 -999 -99.9 -99.9 -999.9 -9.9 -9.999 -99.9 -99.99 -9.99
2019/06/20 03:00 EDT    1.84 -99.99 -999 -999 -999 -99.9 -99.9 -999.9 -9.9 -9.999 -99.9 -99.99 -9.99
2019/06/20 03:06 EDT    1.73 -99.99 -999 -999 -999 -99.9 -99.9 -999.9 -9.9 -9.999 -99.9 -99.99 -9.99
2019/06/20 03:12 EDT    1.62 -99.99 -999 -999 -999 -99.9 -99.9 -999.9 -9.9 -9.999 -99.9 -99.99 -9.99
2019/06/20 03:18 EDT    1.52 -99.99 -999 -999 -999 -99.9 -99.9 -999.9 -9.9 -9.999 -99.9 -99.99 -9.99
2019/06/20 03:24 EDT    1.41 -99.99 -999 -999 -999 -99.9 -99.9 -999.9 -9.9 -9.999 -99.9 -99.99 -9.99
2019/06/20 03:30 EDT    1.31 -99.99 -999 -999 -999 -99.9 -99.9 -999.9 -9.9 -9.999 -99.9 -99.99 -9.99
2019/06/20 03:36 EDT    1.21 -99.99 -999 -999 -999 -99.9 -99.9 -999.9 -9.9 -9.999 -99.9 -99.99 -9.99
2019/06/20 03:42 EDT    1.11 -99.99 -999 -999 -999 -99.9 -99.9 -999.9 -9.9 -9.999 -99.9 -99.99 -9.99
2019/06/20 03:48 EDT    1.01 -99.99 -999 -999 -999 -99.9 -99.9 -999.9 -9.9 -9.999 -99.9 -99.99 -9.99
2019/06/20 03:54 EDT    0.92 -99.99 -999 -999 -999 -99.9 -99.9 -999.9 -9.9 -9.999 -99.9 -99.99 -9.99
2019/06/20 04:00 EDT    0.83 -99.99 -999 -999 -999 -99.9 -99.9 -999.9 -9.9 -9.999 -99.9 -99.99 -9.99
2019/06/20 04:06 EDT    0.75 -99.99 -999 -999 -999 -99.9 -99.9 -999.9 -9.9 -9.999 -99.9 -99.99 -9.99
2019/06/20 04:12 EDT    0.67 -99.99 -999 -999 -999 -99.9 -99.9 -999.9 -9.9 -9.999 -99.9 -99.99 -9.99
2019/06/20 04:18 EDT    0.59 -99.99 -999 -999 -999 -99.9 -99.9 -999.9 -9.9 -9.999 -99.9 -99.99 -9.99
2019/06/20 04:24 EDT    0.51 -99.99 -999 -999 -999 -99.9 -99.9 -999.9 -9.9 -9.999 -99.9 -99.99 -9.99
2019/06/20 04:30 EDT    0.44 -99.99 -999 -999 -999 -99.9 -99.9 -999.9 -9.9 -9.999 -99.9 -99.99 -9.99
2019/06/20 04:36 EDT    0.38 -99.99 -999 -999 -999 -99.9 -99.9 -999.9 -9.9 -9.999 -99.9 -99.99 -9.99
2019/06/20 04:42 EDT    0.32 -99.99 -999 -999 -999 -99.9 -99.9 -999.9 -9.9 -9.999 -99.9 -99.99 -9.99
2019/06/20 04:48 EDT    0.27 -99.99 -999 -999 -999 -99.9 -99.9 -999.9 -9.9 -9.999 -99.9 -99.99 -9.99
2019/06/20 04:54 EDT    0.22 -99.99 -999 -999 -999 -99.9 -99.9 -999.9 -9.9 -9.999 -99.9 -99.99 -9.99
2019/06/20 05:00 EDT    0.18 -99.99 -999 -999 -999 -99.9 -99.9 -999.9 -9.9 -9.999 -99.9 -99.99 -9.99
2019/06/20 05:06 EDT    0.15 -99.99 -999 -999 -999 -99.9 -99.9 -999.9 -9.9 -9.999 -99.9 -99.99 -9.99
2019/06/20 05:12 EDT    0.12 -99.99 -999 -999 -999 -99.9 -99.9 -999.9 -9.9 -9.999 -99.9 -99.99 -9.99
2019/06/20 05:18 EDT    0.10 -99.99 -999 -999 -999 -99.9 -99.9 -999.9 -9.9 -9.999 -99.9 -99.99 -9.99
2019/06/20 05:24 EDT    0.09 -99.99 -999 -999 -999 -99.9 -99.9 -999.9 -9.9 -9.999 -99.9 -99.99 -9.99
2019/06/20 05:30 EDT    0.09 -99.99 -999 -999 -999 -99.9 -99.9 -999.9 -9.9 -9.999 -99.9 -99.99 -9.99
2019/06/20 05:36 EDT    0.10 -99.99 -999 -999 -999 -99.9 -99.9 -999.9 -9.9 -9.999 -99.9 -99.99 -9.99
2019/06/20 05:42 EDT    0.11 -99.99 -999 -999 -999 -99.9 -99.9 -999.9 -9.9 -9.999 -99.9 -99.99 -9.99
2019/06/20 05:48 EDT    0.14 -99.99 -999 -999 -999 -99.9 -99.9 -999.9 -9.9 -9.999 -99.9 -99.99 -9.99
2019/06/20 05:54 EDT    0.17 -99.99 -999 -999 -999 -99.9 -99.9 -999.9 -9.9 -9.999 -99.9 -99.99 -9.99
2019/06/20 06:00 EDT    0.21 -99.99 -999 -999 -999 -99.9 -99.9 -999.9 -9.9 -9.999 -99.9 -99.99 -9.99
2019/06/20 06:06 EDT    0.26 -99.99 -999 -999 -999 -99.9 -99.9 -999.9 -9.9 -9.999 -99.9 -99.99 -9.99
2019/06/20 06:12 EDT    0.32 -99.99 -999 -999 -999 -99.9 -99.9 -999.9 -9.9 -9.999 -99.9 -99.99 -9.99
2019/06/20 06:18 EDT    0.39 -99.99 -999 -999 -999 -99.9 -99.9 -999.9 -9.9 -9.999 -99.9 -99.99 -9.99
2019/06/20 06:24 EDT    0.46 -99.99 -999 -999 -999 -99.9 -99.9 -999.9 -9.9 -9.999 -99.9 -99.99 -9.99
2019/06/20 06:30 EDT    0.55 -99.99 -999 -999 -999 -99.9 -99.9 -999.9 -9.9 -9.999 -99.9 -99.99 -9.99
2019/06/20 06:36 EDT    0.64 -99.99 -999 -999 -999 -99.9 -99.9 -999.9 -9.9 -9.999 -99.9 -99.99 -9.99
2019/06/20 06:42 EDT    0.74 -99.99 -999 -999 -999 -99.9 -99.9 -999.9 -9.9 -9.999 -99.9 -99.99 -9.99
2019/06/20 06:48 EDT    0.84 -99.99 -999 -999 -999 -99.9 -99.9 -999.9 -9.9 -9.999 -99.9 -99.99 -9.99
2019/06/20 06:54 EDT    0.95 -99.99 -999 -999 -999 -99.9 -99.9 -999.9 -9.9 -9.999 -99.9 -99.99 -9.99

Revised: 08/08/2018
NOAA / National Ocean Service
Web site owner: Center for Operational Oceanographic Products and Services